<?xml version="1.0" encoding="UTF-8" standalone="no" ?>
<gpx xmlns="http://www.topografix.com/GPX/1/1" xmlns:xsi="http://www.w3.org/2001/XMLSchema-instance" xsi:schemaLocation="http://www.topografix.com/GPX/1/1 http://www.topografix.com/GPX/1/1/gpx.xsd" version="1.1" creator="VisuGPX - https://www.visugpx.com">
  <metadata>
    <name>9154415-la feuillie boucle</name>
  </metadata>
  <trk>
    <name><![CDATA[9154415-la feuillie]]></name>
    <trkseg>
      <trkpt lat="49.46371" lon="1.51424">
        <ele>177</ele>
        <time>2020-05-25T16:20:26Z</time>
      </trkpt>
      <trkpt lat="49.46406" lon="1.51458">
        <ele>178</ele>
        <time>2020-05-25T16:21:21Z</time>
      </trkpt>
      <trkpt lat="49.46464" lon="1.51567">
        <ele>177</ele>
        <time>2020-05-25T16:23:23Z</time>
      </trkpt>
      <trkpt lat="49.46572" lon="1.51646">
        <ele>178</ele>
        <time>2020-05-25T16:26:03Z</time>
      </trkpt>
      <trkpt lat="49.46718" lon="1.51839">
        <ele>176</ele>
        <time>2020-05-25T16:30:20Z</time>
      </trkpt>
      <trkpt lat="49.46713" lon="1.51971">
        <ele>176</ele>
        <time>2020-05-25T16:32:15Z</time>
      </trkpt>
      <trkpt lat="49.46659" lon="1.52086">
        <ele>179</ele>
        <time>2020-05-25T16:34:18Z</time>
      </trkpt>
      <trkpt lat="49.46695" lon="1.52268">
        <ele>181</ele>
        <time>2020-05-25T16:37:03Z</time>
      </trkpt>
      <trkpt lat="49.46639" lon="1.52564">
        <ele>184</ele>
        <time>2020-05-25T16:41:30Z</time>
      </trkpt>
      <trkpt lat="49.46926" lon="1.53229">
        <ele>189</ele>
        <time>2020-05-25T16:53:02Z</time>
      </trkpt>
      <trkpt lat="49.46956" lon="1.5316">
        <ele>189</ele>
        <time>2020-05-25T16:54:14Z</time>
      </trkpt>
      <trkpt lat="49.47218" lon="1.53489">
        <ele>192</ele>
        <time>2020-05-25T17:01:45Z</time>
      </trkpt>
      <trkpt lat="49.47482" lon="1.53663">
        <ele>188</ele>
        <time>2020-05-25T17:08:09Z</time>
      </trkpt>
      <trkpt lat="49.47484" lon="1.53819">
        <ele>191</ele>
        <time>2020-05-25T17:10:24Z</time>
      </trkpt>
      <trkpt lat="49.47559" lon="1.54014">
        <ele>181</ele>
        <time>2020-05-25T17:13:41Z</time>
      </trkpt>
      <trkpt lat="49.47554" lon="1.54095">
        <ele>179</ele>
        <time>2020-05-25T17:14:51Z</time>
      </trkpt>
      <trkpt lat="49.47655" lon="1.54225">
        <ele>171</ele>
        <time>2020-05-25T17:17:47Z</time>
      </trkpt>
      <trkpt lat="49.47581" lon="1.54417">
        <ele>171</ele>
        <time>2020-05-25T17:21:00Z</time>
      </trkpt>
      <trkpt lat="49.47599" lon="1.54535">
        <ele>175</ele>
        <time>2020-05-25T17:22:45Z</time>
      </trkpt>
      <trkpt lat="49.47649" lon="1.54615">
        <ele>177</ele>
        <time>2020-05-25T17:24:22Z</time>
      </trkpt>
      <trkpt lat="49.47727" lon="1.54605">
        <ele>188</ele>
        <time>2020-05-25T17:26:06Z</time>
      </trkpt>
      <trkpt lat="49.47861" lon="1.54741">
        <ele>201</ele>
        <time>2020-05-25T17:29:40Z</time>
      </trkpt>
      <trkpt lat="49.47972" lon="1.54912">
        <ele>203</ele>
        <time>2020-05-25T17:33:10Z</time>
      </trkpt>
      <trkpt lat="49.48003" lon="1.55005">
        <ele>202</ele>
        <time>2020-05-25T17:34:41Z</time>
      </trkpt>
      <trkpt lat="49.48164" lon="1.5534">
        <ele>204</ele>
        <time>2020-05-25T17:40:42Z</time>
      </trkpt>
      <trkpt lat="49.48385" lon="1.556">
        <ele>209</ele>
        <time>2020-05-25T17:46:53Z</time>
      </trkpt>
      <trkpt lat="49.48557" lon="1.55345">
        <ele>213</ele>
        <time>2020-05-25T17:52:12Z</time>
      </trkpt>
      <trkpt lat="49.48395" lon="1.54991">
        <ele>209</ele>
        <time>2020-05-25T17:58:27Z</time>
      </trkpt>
      <trkpt lat="49.48492" lon="1.54853">
        <ele>202</ele>
        <time>2020-05-25T18:01:23Z</time>
      </trkpt>
      <trkpt lat="49.48719" lon="1.55237">
        <ele>208</ele>
        <time>2020-05-25T18:08:53Z</time>
      </trkpt>
      <trkpt lat="49.48868" lon="1.55212">
        <ele>211</ele>
        <time>2020-05-25T18:12:13Z</time>
      </trkpt>
      <trkpt lat="49.49105" lon="1.55228">
        <ele>217</ele>
        <time>2020-05-25T18:17:30Z</time>
      </trkpt>
      <trkpt lat="49.49202" lon="1.55045">
        <ele>205</ele>
        <time>2020-05-25T18:20:55Z</time>
      </trkpt>
      <trkpt lat="49.49304" lon="1.5518">
        <ele>208</ele>
        <time>2020-05-25T18:23:54Z</time>
      </trkpt>
      <trkpt lat="49.49574" lon="1.55167">
        <ele>200</ele>
        <time>2020-05-25T18:29:55Z</time>
      </trkpt>
      <trkpt lat="49.49799" lon="1.54937">
        <ele>210</ele>
        <time>2020-05-25T18:35:55Z</time>
      </trkpt>
      <trkpt lat="49.4976" lon="1.54625">
        <ele>217</ele>
        <time>2020-05-25T18:40:31Z</time>
      </trkpt>
      <trkpt lat="49.49669" lon="1.5427">
        <ele>217</ele>
        <time>2020-05-25T18:46:01Z</time>
      </trkpt>
      <trkpt lat="49.49674" lon="1.54029">
        <ele>214</ele>
        <time>2020-05-25T18:49:30Z</time>
      </trkpt>
      <trkpt lat="49.49749" lon="1.53704">
        <ele>210</ele>
        <time>2020-05-25T18:54:29Z</time>
      </trkpt>
      <trkpt lat="49.49827" lon="1.52933">
        <ele>215</ele>
        <time>2020-05-25T19:05:45Z</time>
      </trkpt>
      <trkpt lat="49.49869" lon="1.52917">
        <ele>220</ele>
        <time>2020-05-25T19:06:43Z</time>
      </trkpt>
      <trkpt lat="49.49992" lon="1.52387">
        <ele>215</ele>
        <time>2020-05-25T19:14:51Z</time>
      </trkpt>
      <trkpt lat="49.49976" lon="1.52296">
        <ele>214</ele>
        <time>2020-05-25T19:16:13Z</time>
      </trkpt>
      <trkpt lat="49.49795" lon="1.50974">
        <ele>199</ele>
        <time>2020-05-25T19:35:44Z</time>
      </trkpt>
      <trkpt lat="49.49622" lon="1.50736">
        <ele>187</ele>
        <time>2020-05-25T19:40:53Z</time>
      </trkpt>
      <trkpt lat="49.49586" lon="1.50435">
        <ele>188</ele>
        <time>2020-05-25T19:45:19Z</time>
      </trkpt>
      <trkpt lat="49.49512" lon="1.50237">
        <ele>186</ele>
        <time>2020-05-25T19:48:37Z</time>
      </trkpt>
      <trkpt lat="49.49456" lon="1.4972">
        <ele>184</ele>
        <time>2020-05-25T19:56:11Z</time>
      </trkpt>
      <trkpt lat="49.49288" lon="1.49337">
        <ele>167</ele>
        <time>2020-05-25T20:02:51Z</time>
      </trkpt>
      <trkpt lat="49.49411" lon="1.4889">
        <ele>153</ele>
        <time>2020-05-25T20:09:52Z</time>
      </trkpt>
      <trkpt lat="49.49308" lon="1.48665">
        <ele>98</ele>
        <time>2020-05-25T20:13:51Z</time>
      </trkpt>
      <trkpt lat="49.49378" lon="1.48582">
        <ele>98</ele>
        <time>2020-05-25T20:15:49Z</time>
      </trkpt>
      <trkpt lat="49.49385" lon="1.4851">
        <ele>92</ele>
        <time>2020-05-25T20:16:52Z</time>
      </trkpt>
      <trkpt lat="49.49363" lon="1.48453">
        <ele>90</ele>
        <time>2020-05-25T20:17:49Z</time>
      </trkpt>
      <trkpt lat="49.49279" lon="1.48351">
        <ele>97</ele>
        <time>2020-05-25T20:20:12Z</time>
      </trkpt>
      <trkpt lat="49.49146" lon="1.48371">
        <ele>110</ele>
        <time>2020-05-25T20:23:10Z</time>
      </trkpt>
      <trkpt lat="49.49016" lon="1.4835">
        <ele>123</ele>
        <time>2020-05-25T20:26:05Z</time>
      </trkpt>
      <trkpt lat="49.48575" lon="1.47955">
        <ele>157</ele>
        <time>2020-05-25T20:37:26Z</time>
      </trkpt>
      <trkpt lat="49.48544" lon="1.47773">
        <ele>152</ele>
        <time>2020-05-25T20:40:09Z</time>
      </trkpt>
      <trkpt lat="49.48271" lon="1.47383">
        <ele>173</ele>
        <time>2020-05-25T20:48:26Z</time>
      </trkpt>
      <trkpt lat="49.48051" lon="1.472">
        <ele>173</ele>
        <time>2020-05-25T20:54:00Z</time>
      </trkpt>
      <trkpt lat="49.47872" lon="1.47543">
        <ele>175</ele>
        <time>2020-05-25T21:00:21Z</time>
      </trkpt>
      <trkpt lat="49.47774" lon="1.47521">
        <ele>171</ele>
        <time>2020-05-25T21:02:33Z</time>
      </trkpt>
      <trkpt lat="49.47642" lon="1.47368">
        <ele>166</ele>
        <time>2020-05-25T21:06:14Z</time>
      </trkpt>
      <trkpt lat="49.47485" lon="1.47111">
        <ele>137</ele>
        <time>2020-05-25T21:11:20Z</time>
      </trkpt>
      <trkpt lat="49.47459" lon="1.46848">
        <ele>118</ele>
        <time>2020-05-25T21:15:10Z</time>
      </trkpt>
      <trkpt lat="49.47259" lon="1.47184">
        <ele>122</ele>
        <time>2020-05-25T21:21:45Z</time>
      </trkpt>
      <trkpt lat="49.47178" lon="1.47225">
        <ele>122</ele>
        <time>2020-05-25T21:23:39Z</time>
      </trkpt>
      <trkpt lat="49.47077" lon="1.4723">
        <ele>122</ele>
        <time>2020-05-25T21:25:54Z</time>
      </trkpt>
      <trkpt lat="49.47021" lon="1.47332">
        <ele>126</ele>
        <time>2020-05-25T21:27:50Z</time>
      </trkpt>
      <trkpt lat="49.46982" lon="1.47473">
        <ele>127</ele>
        <time>2020-05-25T21:30:03Z</time>
      </trkpt>
      <trkpt lat="49.46801" lon="1.47579">
        <ele>128</ele>
        <time>2020-05-25T21:34:21Z</time>
      </trkpt>
      <trkpt lat="49.46682" lon="1.47763">
        <ele>134</ele>
        <time>2020-05-25T21:38:06Z</time>
      </trkpt>
      <trkpt lat="49.46527" lon="1.47847">
        <ele>136</ele>
        <time>2020-05-25T21:41:45Z</time>
      </trkpt>
      <trkpt lat="49.46346" lon="1.48259">
        <ele>144</ele>
        <time>2020-05-25T21:48:57Z</time>
      </trkpt>
      <trkpt lat="49.46338" lon="1.48427">
        <ele>146</ele>
        <time>2020-05-25T21:51:23Z</time>
      </trkpt>
      <trkpt lat="49.46423" lon="1.48663">
        <ele>149</ele>
        <time>2020-05-25T21:55:17Z</time>
      </trkpt>
      <trkpt lat="49.46575" lon="1.48974">
        <ele>165</ele>
        <time>2020-05-25T22:00:54Z</time>
      </trkpt>
      <trkpt lat="49.46524" lon="1.49449">
        <ele>171</ele>
        <time>2020-05-25T22:07:52Z</time>
      </trkpt>
      <trkpt lat="49.46556" lon="1.4992">
        <ele>173</ele>
        <time>2020-05-25T22:14:43Z</time>
      </trkpt>
      <trkpt lat="49.46827" lon="1.50662">
        <ele>180</ele>
        <time>2020-05-25T22:27:01Z</time>
      </trkpt>
      <trkpt lat="49.46725" lon="1.50938">
        <ele>177</ele>
        <time>2020-05-25T22:31:36Z</time>
      </trkpt>
      <trkpt lat="49.46567" lon="1.51039">
        <ele>175</ele>
        <time>2020-05-25T22:35:24Z</time>
      </trkpt>
      <trkpt lat="49.46365" lon="1.51379">
        <ele>177</ele>
        <time>2020-05-25T22:42:04Z</time>
      </trkpt>
    </trkseg>
  </trk>
</gpx>